Dogwood, Texas
Current Conditions -  °F | °C
As of 9:55 PM on Saturday 20 Dec 2014 (Local Time) from KJAS Reporting Station
Clear Clear  
Wind Chill: 40°   Ceiling: Unl
Heat Index: 43°   Visibility: 10mi
Dew Point: 41°   Wind: 5mph
Humidity: 95%   Direction: 20°NNE
Pressure: 30.22"   Gusts: NA
Location:  30.7643°N, 94.4448°W
Report Text: KJAS 210355Z AUTO 02004KT 10SM CLR 06/05 A3022 RMK AO2 T00600052
Loading
Personal Weather Stations






























Interactive Weather Map New forecast layout! Learn more

10-Day Weather Forecast

Advertisements
Track Severe Weather on mobile